sensor_id;sensor_type;location;lat;lon;timestamp;temperature;humidity
41694;DHT22;27377;50.666;9.150;2023-08-30T00:00:38;11.50;99.90
41694;DHT22;27377;50.666;9.150;2023-08-30T00:03:04;11.50;99.90
41694;DHT22;27377;50.666;9.150;2023-08-30T00:05:30;11.50;99.90
41694;DHT22;27377;50.666;9.150;2023-08-30T00:07:56;11.50;99.90
41694;DHT22;27377;50.666;9.150;2023-08-30T00:10:21;11.50;99.90
41694;DHT22;27377;50.666;9.150;2023-08-30T00:12:47;11.50;99.90
41694;DHT22;27377;50.666;9.150;2023-08-30T00:15:14;11.50;99.90
41694;DHT22;27377;50.666;9.150;2023-08-30T00:17:39;11.40;99.90
41694;DHT22;27377;50.666;9.150;2023-08-30T00:20:06;11.40;99.90
41694;DHT22;27377;50.666;9.150;2023-08-30T00:22:32;11.30;99.90
41694;DHT22;27377;50.666;9.150;2023-08-30T00:24:58;11.30;99.90
41694;DHT22;27377;50.666;9.150;2023-08-30T00:27:23;11.30;99.90
41694;DHT22;27377;50.666;9.150;2023-08-30T00:29:49;11.20;99.90
41694;DHT22;27377;50.666;9.150;2023-08-30T00:32:15;11.20;99.90
41694;DHT22;27377;50.666;9.150;2023-08-30T00:34:40;11.20;99.90
41694;DHT22;27377;50.666;9.150;2023-08-30T00:37:06;11.10;99.90
41694;DHT22;27377;50.666;9.150;2023-08-30T00:39:31;11.00;99.90
41694;DHT22;27377;50.666;9.150;2023-08-30T00:41:57;10.90;99.90
41694;DHT22;27377;50.666;9.150;2023-08-30T00:44:23;10.90;99.90
41694;DHT22;27377;50.666;9.150;2023-08-30T00:46:49;10.90;99.90
41694;DHT22;27377;50.666;9.150;2023-08-30T00:49:14;11.00;99.90
41694;DHT22;27377;50.666;9.150;2023-08-30T00:51:40;10.90;99.90
41694;DHT22;27377;50.666;9.150;2023-08-30T00:54:06;10.90;99.90
41694;DHT22;27377;50.666;9.150;2023-08-30T00:56:32;10.90;99.90
41694;DHT22;27377;50.666;9.150;2023-08-30T00:58:59;10.90;99.90
41694;DHT22;27377;50.666;9.150;2023-08-30T01:01:26;11.00;99.90
41694;DHT22;27377;50.666;9.150;2023-08-30T01:03:51;11.00;99.90
41694;DHT22;27377;50.666;9.150;2023-08-30T01:06:17;11.00;99.90
41694;DHT22;27377;50.666;9.150;2023-08-30T01:08:43;11.00;99.90
41694;DHT22;27377;50.666;9.150;2023-08-30T01:11:22;11.00;99.90
41694;DHT22;27377;50.666;9.150;2023-08-30T01:14:15;11.00;99.90
41694;DHT22;27377;50.666;9.150;2023-08-30T01:16:44;11.00;99.90
41694;DHT22;27377;50.666;9.150;2023-08-30T01:22:15;11.00;99.90
41694;DHT22;27377;50.666;9.150;2023-08-30T01:24:48;11.00;99.90
41694;DHT22;27377;50.666;9.150;2023-08-30T01:27:20;11.10;99.90
41694;DHT22;27377;50.666;9.150;2023-08-30T01:29:47;11.10;99.90
41694;DHT22;27377;50.666;9.150;2023-08-30T01:32:14;11.10;99.90
41694;DHT22;27377;50.666;9.150;2023-08-30T01:34:41;11.00;99.90
41694;DHT22;27377;50.666;9.150;2023-08-30T01:37:08;10.90;99.90
41694;DHT22;27377;50.666;9.150;2023-08-30T01:39:36;10.90;99.90
41694;DHT22;27377;50.666;9.150;2023-08-30T01:42:03;10.90;99.90
41694;DHT22;27377;50.666;9.150;2023-08-30T01:44:30;10.90;99.90
41694;DHT22;27377;50.666;9.150;2023-08-30T01:46:57;10.90;99.90
41694;DHT22;27377;50.666;9.150;2023-08-30T01:49:28;10.90;99.90
41694;DHT22;27377;50.666;9.150;2023-08-30T01:51:57;10.90;99.90
41694;DHT22;27377;50.666;9.150;2023-08-30T01:54:24;11.00;99.90
41694;DHT22;27377;50.666;9.150;2023-08-30T01:56:50;10.90;99.90
41694;DHT22;27377;50.666;9.150;2023-08-30T01:59:16;10.90;99.90
41694;DHT22;27377;50.666;9.150;2023-08-30T02:01:42;11.00;99.90
41694;DHT22;27377;50.666;9.150;2023-08-30T02:04:08;11.00;99.90
41694;DHT22;27377;50.666;9.150;2023-08-30T02:06:48;11.00;99.90
41694;DHT22;27377;50.666;9.150;2023-08-30T02:09:28;11.00;99.90
41694;DHT22;27377;50.666;9.150;2023-08-30T02:11:57;11.00;99.90
41694;DHT22;27377;50.666;9.150;2023-08-30T02:14:27;10.90;99.90
41694;DHT22;27377;50.666;9.150;2023-08-30T02:16:55;10.90;99.90
41694;DHT22;27377;50.666;9.150;2023-08-30T02:19:21;10.90;99.90
41694;DHT22;27377;50.666;9.150;2023-08-30T02:21:47;10.90;99.90
41694;DHT22;27377;50.666;9.150;2023-08-30T02:24:14;10.90;99.90
41694;DHT22;27377;50.666;9.150;2023-08-30T02:26:39;10.90;99.90
41694;DHT22;27377;50.666;9.150;2023-08-30T02:29:05;10.90;99.90
41694;DHT22;27377;50.666;9.150;2023-08-30T02:31:31;10.90;99.90
41694;DHT22;27377;50.666;9.150;2023-08-30T02:33:56;10.90;99.90
41694;DHT22;27377;50.666;9.150;2023-08-30T02:36:22;10.90;99.90
41694;DHT22;27377;50.666;9.150;2023-08-30T02:38:48;11.00;99.90
41694;DHT22;27377;50.666;9.150;2023-08-30T02:41:14;11.00;99.90
41694;DHT22;27377;50.666;9.150;2023-08-30T02:43:39;11.00;99.90
41694;DHT22;27377;50.666;9.150;2023-08-30T02:46:05;11.00;99.90
41694;DHT22;27377;50.666;9.150;2023-08-30T02:48:32;11.00;99.90
41694;DHT22;27377;50.666;9.150;2023-08-30T02:50:58;11.10;99.90
41694;DHT22;27377;50.666;9.150;2023-08-30T02:53:24;11.10;99.90
41694;DHT22;27377;50.666;9.150;2023-08-30T02:55:50;11.10;99.90
41694;DHT22;27377;50.666;9.150;2023-08-30T02:58:15;11.00;99.90
41694;DHT22;27377;50.666;9.150;2023-08-30T03:00:41;11.00;99.90
41694;DHT22;27377;50.666;9.150;2023-08-30T03:03:07;11.00;99.90
41694;DHT22;27377;50.666;9.150;2023-08-30T03:05:32;11.10;99.90
41694;DHT22;27377;50.666;9.150;2023-08-30T03:07:58;11.10;99.90
41694;DHT22;27377;50.666;9.150;2023-08-30T03:10:24;11.10;99.90
41694;DHT22;27377;50.666;9.150;2023-08-30T03:12:49;11.10;99.90
41694;DHT22;27377;50.666;9.150;2023-08-30T03:15:15;11.00;99.90
41694;DHT22;27377;50.666;9.150;2023-08-30T03:17:41;11.00;99.90
41694;DHT22;27377;50.666;9.150;2023-08-30T03:20:07;11.10;99.90
41694;DHT22;27377;50.666;9.150;2023-08-30T03:22:32;11.10;99.90
41694;DHT22;27377;50.666;9.150;2023-08-30T03:24:58;11.10;99.90
41694;DHT22;27377;50.666;9.150;2023-08-30T03:27:24;11.10;99.90
41694;DHT22;27377;50.666;9.150;2023-08-30T03:29:50;11.10;99.90
41694;DHT22;27377;50.666;9.150;2023-08-30T03:32:17;11.20;99.90
41694;DHT22;27377;50.666;9.150;2023-08-30T03:34:46;11.10;99.90
41694;DHT22;27377;50.666;9.150;2023-08-30T03:37:15;11.10;99.90
41694;DHT22;27377;50.666;9.150;2023-08-30T03:39:42;11.10;99.90
41694;DHT22;27377;50.666;9.150;2023-08-30T03:42:07;11.10;99.90
41694;DHT22;27377;50.666;9.150;2023-08-30T03:44:34;11.20;99.90
41694;DHT22;27377;50.666;9.150;2023-08-30T03:46:59;11.10;99.90
41694;DHT22;27377;50.666;9.150;2023-08-30T03:49:25;11.20;99.90
41694;DHT22;27377;50.666;9.150;2023-08-30T03:51:51;11.20;99.90
41694;DHT22;27377;50.666;9.150;2023-08-30T03:54:16;11.20;99.90
41694;DHT22;27377;50.666;9.150;2023-08-30T03:56:45;11.10;99.90
41694;DHT22;27377;50.666;9.150;2023-08-30T03:59:13;11.10;99.90
41694;DHT22;27377;50.666;9.150;2023-08-30T04:01:39;11.10;99.90
41694;DHT22;27377;50.666;9.150;2023-08-30T04:04:05;11.10;99.90
41694;DHT22;27377;50.666;9.150;2023-08-30T04:06:31;11.20;99.90
41694;DHT22;27377;50.666;9.150;2023-08-30T04:08:56;11.10;99.90
41694;DHT22;27377;50.666;9.150;2023-08-30T04:11:23;11.10;99.90
41694;DHT22;27377;50.666;9.150;2023-08-30T04:13:48;11.10;99.90
41694;DHT22;27377;50.666;9.150;2023-08-30T04:16:14;11.20;99.90
41694;DHT22;27377;50.666;9.150;2023-08-30T04:18:40;11.30;99.90
41694;DHT22;27377;50.666;9.150;2023-08-30T04:21:06;11.40;99.90
41694;DHT22;27377;50.666;9.150;2023-08-30T04:23:33;11.40;99.90
41694;DHT22;27377;50.666;9.150;2023-08-30T04:25:59;11.40;99.90
41694;DHT22;27377;50.666;9.150;2023-08-30T04:28:25;11.40;99.90
41694;DHT22;27377;50.666;9.150;2023-08-30T04:30:53;11.40;99.90
41694;DHT22;27377;50.666;9.150;2023-08-30T04:33:20;11.30;99.90
41694;DHT22;27377;50.666;9.150;2023-08-30T04:35:52;11.30;99.90
41694;DHT22;27377;50.666;9.150;2023-08-30T04:38:18;11.40;99.90
41694;DHT22;27377;50.666;9.150;2023-08-30T04:40:43;11.40;99.90
41694;DHT22;27377;50.666;9.150;2023-08-30T04:43:09;11.40;99.90
41694;DHT22;27377;50.666;9.150;2023-08-30T04:45:41;11.50;99.90
41694;DHT22;27377;50.666;9.150;2023-08-30T04:48:13;11.40;99.90
41694;DHT22;27377;50.666;9.150;2023-08-30T04:50:38;11.40;99.90
41694;DHT22;27377;50.666;9.150;2023-08-30T04:53:09;11.40;99.90
41694;DHT22;27377;50.666;9.150;2023-08-30T04:56:09;11.40;99.90
41694;DHT22;27377;50.666;9.150;2023-08-30T04:58:41;11.40;99.90
41694;DHT22;27377;50.666;9.150;2023-08-30T05:01:07;11.50;99.90
41694;DHT22;27377;50.666;9.150;2023-08-30T05:03:34;11.50;99.90
41694;DHT22;27377;50.666;9.150;2023-08-30T05:06:00;11.60;99.90
41694;DHT22;27377;50.666;9.150;2023-08-30T05:08:25;11.60;99.90
41694;DHT22;27377;50.666;9.150;2023-08-30T05:10:54;11.60;99.90
41694;DHT22;27377;50.666;9.150;2023-08-30T05:13:20;11.60;99.90
41694;DHT22;27377;50.666;9.150;2023-08-30T05:15:49;11.60;99.90
41694;DHT22;27377;50.666;9.150;2023-08-30T05:18:26;11.60;99.90
41694;DHT22;27377;50.666;9.150;2023-08-30T05:21:05;11.60;99.90
41694;DHT22;27377;50.666;9.150;2023-08-30T05:23:37;11.70;99.90
41694;DHT22;27377;50.666;9.150;2023-08-30T05:26:19;11.70;99.90
41694;DHT22;27377;50.666;9.150;2023-08-30T05:29:05;11.70;99.90
41694;DHT22;27377;50.666;9.150;2023-08-30T05:31:31;11.70;99.90
41694;DHT22;27377;50.666;9.150;2023-08-30T05:34:03;11.70;99.90
41694;DHT22;27377;50.666;9.150;2023-08-30T05:43:43;11.80;99.90
41694;DHT22;27377;50.666;9.150;2023-08-30T05:46:14;11.80;99.90
41694;DHT22;27377;50.666;9.150;2023-08-30T05:48:57;11.80;99.90
41694;DHT22;27377;50.666;9.150;2023-08-30T05:51:34;11.90;99.90
41694;DHT22;27377;50.666;9.150;2023-08-30T05:59:55;11.90;99.90
41694;DHT22;27377;50.666;9.150;2023-08-30T06:02:27;12.00;99.90
41694;DHT22;27377;50.666;9.150;2023-08-30T06:11:15;12.00;99.90
41694;DHT22;27377;50.666;9.150;2023-08-30T06:20:52;12.00;99.90
41694;DHT22;27377;50.666;9.150;2023-08-30T06:26:35;12.10;99.90
41694;DHT22;27377;50.666;9.150;2023-08-30T06:29:13;12.20;99.90
41694;DHT22;27377;50.666;9.150;2023-08-30T06:31:45;12.20;99.90
41694;DHT22;27377;50.666;9.150;2023-08-30T06:34:11;12.30;99.90
41694;DHT22;27377;50.666;9.150;2023-08-30T06:36:38;12.30;99.90
41694;DHT22;27377;50.666;9.150;2023-08-30T06:39:10;12.40;99.90
41694;DHT22;27377;50.666;9.150;2023-08-30T06:41:39;12.50;99.90
41694;DHT22;27377;50.666;9.150;2023-08-30T06:44:06;12.50;99.90
41694;DHT22;27377;50.666;9.150;2023-08-30T06:46:35;12.60;99.90
41694;DHT22;27377;50.666;9.150;2023-08-30T06:49:10;12.70;99.90
41694;DHT22;27377;50.666;9.150;2023-08-30T06:51:43;12.70;99.90
41694;DHT22;27377;50.666;9.150;2023-08-30T06:54:13;12.80;99.90
41694;DHT22;27377;50.666;9.150;2023-08-30T06:56:41;12.80;99.90
41694;DHT22;27377;50.666;9.150;2023-08-30T06:59:10;12.80;99.90
41694;DHT22;27377;50.666;9.150;2023-08-30T07:01:47;12.90;99.90
41694;DHT22;27377;50.666;9.150;2023-08-30T07:04:27;13.00;99.90
41694;DHT22;27377;50.666;9.150;2023-08-30T07:07:01;13.00;99.90
41694;DHT22;27377;50.666;9.150;2023-08-30T07:09:42;13.10;99.90
41694;DHT22;27377;50.666;9.150;2023-08-30T07:12:28;13.10;99.90
41694;DHT22;27377;50.666;9.150;2023-08-30T07:15:02;13.20;99.90
41694;DHT22;27377;50.666;9.150;2023-08-30T07:17:33;13.30;99.90
41694;DHT22;27377;50.666;9.150;2023-08-30T07:20:15;13.40;99.90
41694;DHT22;27377;50.666;9.150;2023-08-30T07:22:48;13.40;99.90
41694;DHT22;27377;50.666;9.150;2023-08-30T07:25:31;13.40;99.90
41694;DHT22;27377;50.666;9.150;2023-08-30T07:28:03;13.50;99.90
41694;DHT22;27377;50.666;9.150;2023-08-30T07:30:29;13.50;99.90
41694;DHT22;27377;50.666;9.150;2023-08-30T07:33:01;13.50;99.90
41694;DHT22;27377;50.666;9.150;2023-08-30T07:35:42;13.60;99.90
41694;DHT22;27377;50.666;9.150;2023-08-30T07:38:22;13.60;99.90
41694;DHT22;27377;50.666;9.150;2023-08-30T07:41:04;13.70;99.90
41694;DHT22;27377;50.666;9.150;2023-08-30T07:43:35;13.70;99.90
41694;DHT22;27377;50.666;9.150;2023-08-30T07:46:05;13.70;99.90
41694;DHT22;27377;50.666;9.150;2023-08-30T07:48:34;13.80;99.90
41694;DHT22;27377;50.666;9.150;2023-08-30T07:51:14;13.80;99.90
41694;DHT22;27377;50.666;9.150;2023-08-30T07:53:43;13.90;99.90
41694;DHT22;27377;50.666;9.150;2023-08-30T07:56:12;13.80;99.90
41694;DHT22;27377;50.666;9.150;2023-08-30T07:58:41;13.90;99.90
41694;DHT22;27377;50.666;9.150;2023-08-30T08:01:16;13.90;99.90
41694;DHT22;27377;50.666;9.150;2023-08-30T08:03:42;13.90;99.90
41694;DHT22;27377;50.666;9.150;2023-08-30T08:06:08;13.90;99.90
41694;DHT22;27377;50.666;9.150;2023-08-30T08:08:40;13.90;99.90
41694;DHT22;27377;50.666;9.150;2023-08-30T08:11:06;14.00;99.90
41694;DHT22;27377;50.666;9.150;2023-08-30T08:13:35;14.00;99.90
41694;DHT22;27377;50.666;9.150;2023-08-30T08:16:22;14.00;99.90
41694;DHT22;27377;50.666;9.150;2023-08-30T08:19:00;14.00;99.90
41694;DHT22;27377;50.666;9.150;2023-08-30T08:21:51;14.00;99.90
41694;DHT22;27377;50.666;9.150;2023-08-30T08:24:35;14.10;99.90
41694;DHT22;27377;50.666;9.150;2023-08-30T08:27:46;14.10;99.90
41694;DHT22;27377;50.666;9.150;2023-08-30T08:30:18;14.10;99.90
41694;DHT22;27377;50.666;9.150;2023-08-30T08:32:46;14.10;99.90
41694;DHT22;27377;50.666;9.150;2023-08-30T08:35:20;14.20;99.90
41694;DHT22;27377;50.666;9.150;2023-08-30T08:37:48;14.20;99.90
41694;DHT22;27377;50.666;9.150;2023-08-30T08:43:23;14.20;99.90
41694;DHT22;27377;50.666;9.150;2023-08-30T08:45:51;14.20;99.90
41694;DHT22;27377;50.666;9.150;2023-08-30T08:48:18;14.20;99.90
41694;DHT22;27377;50.666;9.150;2023-08-30T08:50:45;14.30;99.90
41694;DHT22;27377;50.666;9.150;2023-08-30T08:53:13;14.30;99.90
41694;DHT22;27377;50.666;9.150;2023-08-30T08:55:39;14.30;99.90
41694;DHT22;27377;50.666;9.150;2023-08-30T08:58:07;14.40;99.90
41694;DHT22;27377;50.666;9.150;2023-08-30T09:00:37;14.40;99.90
41694;DHT22;27377;50.666;9.150;2023-08-30T09:03:06;14.40;99.90
41694;DHT22;27377;50.666;9.150;2023-08-30T09:05:37;14.50;99.90
41694;DHT22;27377;50.666;9.150;2023-08-30T09:08:06;14.50;99.90
41694;DHT22;27377;50.666;9.150;2023-08-30T09:10:33;14.50;99.90
41694;DHT22;27377;50.666;9.150;2023-08-30T09:13:00;14.50;99.90
41694;DHT22;27377;50.666;9.150;2023-08-30T09:15:32;14.50;99.90
41694;DHT22;27377;50.666;9.150;2023-08-30T09:18:03;14.60;99.90
41694;DHT22;27377;50.666;9.150;2023-08-30T09:20:32;14.50;99.90
41694;DHT22;27377;50.666;9.150;2023-08-30T09:22:57;14.60;99.90
41694;DHT22;27377;50.666;9.150;2023-08-30T09:25:27;14.60;99.90
41694;DHT22;27377;50.666;9.150;2023-08-30T09:27:59;14.60;99.90
41694;DHT22;27377;50.666;9.150;2023-08-30T09:30:27;14.60;99.90
41694;DHT22;27377;50.666;9.150;2023-08-30T09:32:53;14.70;99.90
41694;DHT22;27377;50.666;9.150;2023-08-30T09:35:19;14.70;99.90
41694;DHT22;27377;50.666;9.150;2023-08-30T09:37:45;14.70;99.90
41694;DHT22;27377;50.666;9.150;2023-08-30T09:40:11;14.80;99.90
41694;DHT22;27377;50.666;9.150;2023-08-30T09:42:42;14.80;99.90
41694;DHT22;27377;50.666;9.150;2023-08-30T09:45:21;14.80;99.90
41694;DHT22;27377;50.666;9.150;2023-08-30T09:47:51;14.80;99.90
41694;DHT22;27377;50.666;9.150;2023-08-30T09:50:19;14.90;99.90
41694;DHT22;27377;50.666;9.150;2023-08-30T09:52:49;14.90;99.90
41694;DHT22;27377;50.666;9.150;2023-08-30T09:55:18;14.90;99.90
41694;DHT22;27377;50.666;9.150;2023-08-30T09:57:44;14.90;99.90
41694;DHT22;27377;50.666;9.150;2023-08-30T10:00:11;14.90;99.90
41694;DHT22;27377;50.666;9.150;2023-08-30T10:02:41;15.00;99.90
41694;DHT22;27377;50.666;9.150;2023-08-30T10:05:10;15.00;99.90
41694;DHT22;27377;50.666;9.150;2023-08-30T10:07:41;15.00;99.90
41694;DHT22;27377;50.666;9.150;2023-08-30T10:10:07;15.00;99.90
41694;DHT22;27377;50.666;9.150;2023-08-30T10:12:33;15.10;99.90
41694;DHT22;27377;50.666;9.150;2023-08-30T10:14:59;15.10;99.90
41694;DHT22;27377;50.666;9.150;2023-08-30T10:17:31;15.10;99.90
41694;DHT22;27377;50.666;9.150;2023-08-30T10:20:05;15.10;99.90
41694;DHT22;27377;50.666;9.150;2023-08-30T10:22:38;15.10;99.90
41694;DHT22;27377;50.666;9.150;2023-08-30T10:25:07;15.20;99.90
41694;DHT22;27377;50.666;9.150;2023-08-30T10:27:35;15.20;99.90
41694;DHT22;27377;50.666;9.150;2023-08-30T10:30:04;15.20;99.90
41694;DHT22;27377;50.666;9.150;2023-08-30T10:32:42;15.30;99.90
41694;DHT22;27377;50.666;9.150;2023-08-30T10:35:15;15.30;99.90
41694;DHT22;27377;50.666;9.150;2023-08-30T10:37:42;15.40;99.90
41694;DHT22;27377;50.666;9.150;2023-08-30T10:40:21;15.40;99.90
41694;DHT22;27377;50.666;9.150;2023-08-30T10:43:03;15.40;99.90
41694;DHT22;27377;50.666;9.150;2023-08-30T10:45:29;15.50;99.90
41694;DHT22;27377;50.666;9.150;2023-08-30T10:47:57;15.50;99.90
41694;DHT22;27377;50.666;9.150;2023-08-30T10:50:30;15.50;99.90
41694;DHT22;27377;50.666;9.150;2023-08-30T10:52:56;15.60;99.90
41694;DHT22;27377;50.666;9.150;2023-08-30T10:55:23;15.60;99.90
41694;DHT22;27377;50.666;9.150;2023-08-30T10:58:02;15.60;99.90
41694;DHT22;27377;50.666;9.150;2023-08-30T11:00:30;15.60;99.90
41694;DHT22;27377;50.666;9.150;2023-08-30T11:02:58;15.60;99.90
41694;DHT22;27377;50.666;9.150;2023-08-30T11:05:29;15.70;99.90
41694;DHT22;27377;50.666;9.150;2023-08-30T11:08:00;15.70;99.90
41694;DHT22;27377;50.666;9.150;2023-08-30T11:10:28;15.80;99.90
41694;DHT22;27377;50.666;9.150;2023-08-30T11:12:58;15.80;99.90
41694;DHT22;27377;50.666;9.150;2023-08-30T11:15:29;15.80;99.90
41694;DHT22;27377;50.666;9.150;2023-08-30T11:43:16;15.80;99.90
41694;DHT22;27377;50.666;9.150;2023-08-30T11:46:43;15.80;99.90
41694;DHT22;27377;50.666;9.150;2023-08-30T11:49:19;15.80;99.90
41694;DHT22;27377;50.666;9.150;2023-08-30T11:52:25;15.90;99.90
41694;DHT22;27377;50.666;9.150;2023-08-30T11:59:24;16.00;99.90
41694;DHT22;27377;50.666;9.150;2023-08-30T12:09:04;16.10;99.90
41694;DHT22;27377;50.666;9.150;2023-08-30T12:11:42;16.10;99.90
41694;DHT22;27377;50.666;9.150;2023-08-30T12:14:10;16.00;99.90
41694;DHT22;27377;50.666;9.150;2023-08-30T12:16:39;16.00;99.90
41694;DHT22;27377;50.666;9.150;2023-08-30T12:19:14;16.00;99.90
41694;DHT22;27377;50.666;9.150;2023-08-30T12:21:44;16.00;99.90
41694;DHT22;27377;50.666;9.150;2023-08-30T12:24:51;16.10;99.90
41694;DHT22;27377;50.666;9.150;2023-08-30T12:28:28;16.10;99.90
41694;DHT22;27377;50.666;9.150;2023-08-30T12:31:55;16.10;99.90
41694;DHT22;27377;50.666;9.150;2023-08-30T12:39:35;16.20;99.90
41694;DHT22;27377;50.666;9.150;2023-08-30T12:47:09;16.20;99.90
41694;DHT22;27377;50.666;9.150;2023-08-30T13:00:40;16.20;99.90
41694;DHT22;27377;50.666;9.150;2023-08-30T13:04:30;16.20;99.90
41694;DHT22;27377;50.666;9.150;2023-08-30T13:13:17;16.20;99.90
41694;DHT22;27377;50.666;9.150;2023-08-30T13:22:00;16.20;99.90
41694;DHT22;27377;50.666;9.150;2023-08-30T13:24:26;16.20;99.90
41694;DHT22;27377;50.666;9.150;2023-08-30T13:30:05;16.20;99.90
41694;DHT22;27377;50.666;9.150;2023-08-30T13:32:31;16.20;99.90
41694;DHT22;27377;50.666;9.150;2023-08-30T13:40:08;16.20;99.90
41694;DHT22;27377;50.666;9.150;2023-08-30T13:42:40;16.30;99.90
41694;DHT22;27377;50.666;9.150;2023-08-30T13:48:56;16.40;99.90
41694;DHT22;27377;50.666;9.150;2023-08-30T13:51:23;16.40;99.90
41694;DHT22;27377;50.666;9.150;2023-08-30T13:53:52;16.50;99.90
41694;DHT22;27377;50.666;9.150;2023-08-30T13:59:18;16.50;99.90
41694;DHT22;27377;50.666;9.150;2023-08-30T14:01:44;16.60;99.90
41694;DHT22;27377;50.666;9.150;2023-08-30T14:04:09;16.60;99.90
41694;DHT22;27377;50.666;9.150;2023-08-30T14:09:35;16.70;99.90
41694;DHT22;27377;50.666;9.150;2023-08-30T14:12:01;16.70;99.90
41694;DHT22;27377;50.666;9.150;2023-08-30T14:14:26;16.70;99.90
41694;DHT22;27377;50.666;9.150;2023-08-30T14:19:27;16.70;99.90
41694;DHT22;27377;50.666;9.150;2023-08-30T14:21:53;16.70;99.90
41694;DHT22;27377;50.666;9.150;2023-08-30T14:31:29;16.70;99.90
41694;DHT22;27377;50.666;9.150;2023-08-30T14:33:56;16.70;99.90
41694;DHT22;27377;50.666;9.150;2023-08-30T14:36:24;16.70;99.90
41694;DHT22;27377;50.666;9.150;2023-08-30T14:38:50;16.70;99.90
41694;DHT22;27377;50.666;9.150;2023-08-30T14:41:16;16.70;99.90
41694;DHT22;27377;50.666;9.150;2023-08-30T14:43:43;16.70;99.90
41694;DHT22;27377;50.666;9.150;2023-08-30T14:46:08;16.70;99.90
41694;DHT22;27377;50.666;9.150;2023-08-30T14:48:35;16.60;99.90
41694;DHT22;27377;50.666;9.150;2023-08-30T14:51:43;16.60;99.90
41694;DHT22;27377;50.666;9.150;2023-08-30T14:59:19;16.50;99.90
41694;DHT22;27377;50.666;9.150;2023-08-30T15:02:20;16.50;99.90
41694;DHT22;27377;50.666;9.150;2023-08-30T15:09:14;16.40;99.90
41694;DHT22;27377;50.666;9.150;2023-08-30T15:11:45;16.40;99.90
41694;DHT22;27377;50.666;9.150;2023-08-30T15:14:10;16.40;99.90
41694;DHT22;27377;50.666;9.150;2023-08-30T15:20:14;16.30;99.90
41694;DHT22;27377;50.666;9.150;2023-08-30T15:22:40;16.30;99.90
41694;DHT22;27377;50.666;9.150;2023-08-30T15:28:41;16.40;99.90
41694;DHT22;27377;50.666;9.150;2023-08-30T15:31:10;16.40;99.90
41694;DHT22;27377;50.666;9.150;2023-08-30T15:34:37;16.40;99.90
41694;DHT22;27377;50.666;9.150;2023-08-30T15:45:15;16.40;99.90
41694;DHT22;27377;50.666;9.150;2023-08-30T15:47:41;16.40;99.90
41694;DHT22;27377;50.666;9.150;2023-08-30T15:50:07;16.40;99.90
41694;DHT22;27377;50.666;9.150;2023-08-30T15:52:33;16.40;99.90
41694;DHT22;27377;50.666;9.150;2023-08-30T15:54:59;16.40;99.90
41694;DHT22;27377;50.666;9.150;2023-08-30T15:57:27;16.40;99.90
41694;DHT22;27377;50.666;9.150;2023-08-30T16:00:16;16.40;99.90
41694;DHT22;27377;50.666;9.150;2023-08-30T16:02:44;16.50;99.90
41694;DHT22;27377;50.666;9.150;2023-08-30T16:05:17;16.40;99.90
41694;DHT22;27377;50.666;9.150;2023-08-30T16:07:44;16.40;99.90
41694;DHT22;27377;50.666;9.150;2023-08-30T16:10:13;16.40;99.90
41694;DHT22;27377;50.666;9.150;2023-08-30T16:12:38;16.40;99.90
41694;DHT22;27377;50.666;9.150;2023-08-30T16:15:05;16.40;99.90
41694;DHT22;27377;50.666;9.150;2023-08-30T16:17:35;16.50;99.90
41694;DHT22;27377;50.666;9.150;2023-08-30T16:20:02;16.40;99.90
41694;DHT22;27377;50.666;9.150;2023-08-30T16:22:27;16.50;99.90
41694;DHT22;27377;50.666;9.150;2023-08-30T16:24:54;16.50;99.90
41694;DHT22;27377;50.666;9.150;2023-08-30T16:27:22;16.40;99.90
41694;DHT22;27377;50.666;9.150;2023-08-30T16:29:47;16.40;99.90
41694;DHT22;27377;50.666;9.150;2023-08-30T16:32:13;16.40;99.90
41694;DHT22;27377;50.666;9.150;2023-08-30T16:34:39;16.40;99.90
41694;DHT22;27377;50.666;9.150;2023-08-30T16:37:05;16.40;99.90
41694;DHT22;27377;50.666;9.150;2023-08-30T16:39:31;16.40;99.90
41694;DHT22;27377;50.666;9.150;2023-08-30T16:41:57;16.40;99.90
41694;DHT22;27377;50.666;9.150;2023-08-30T16:44:30;16.40;99.90
41694;DHT22;27377;50.666;9.150;2023-08-30T16:49:40;16.40;99.90
41694;DHT22;27377;50.666;9.150;2023-08-30T16:52:12;16.40;99.90
41694;DHT22;27377;50.666;9.150;2023-08-30T17:03:13;16.30;99.90
41694;DHT22;27377;50.666;9.150;2023-08-30T17:06:02;16.30;99.90
41694;DHT22;27377;50.666;9.150;2023-08-30T17:08:29;16.30;99.90
41694;DHT22;27377;50.666;9.150;2023-08-30T17:11:34;16.30;99.90
41694;DHT22;27377;50.666;9.150;2023-08-30T17:14:17;16.30;99.90
41694;DHT22;27377;50.666;9.150;2023-08-30T17:17:31;16.20;99.90
41694;DHT22;27377;50.666;9.150;2023-08-30T17:20:25;16.00;99.90
41694;DHT22;27377;50.666;9.150;2023-08-30T17:23:36;15.90;99.90
41694;DHT22;27377;50.666;9.150;2023-08-30T17:26:29;15.90;99.90
41694;DHT22;27377;50.666;9.150;2023-08-30T17:29:38;15.80;99.90
41694;DHT22;27377;50.666;9.150;2023-08-30T17:32:52;15.80;99.90
41694;DHT22;27377;50.666;9.150;2023-08-30T17:35:45;15.70;99.90
41694;DHT22;27377;50.666;9.150;2023-08-30T17:38:59;15.70;99.90
41694;DHT22;27377;50.666;9.150;2023-08-30T17:42:50;15.70;99.90
41694;DHT22;27377;50.666;9.150;2023-08-30T17:45:47;15.60;99.90
41694;DHT22;27377;50.666;9.150;2023-08-30T17:48:45;15.50;99.90
41694;DHT22;27377;50.666;9.150;2023-08-30T17:51:51;15.50;99.90
41694;DHT22;27377;50.666;9.150;2023-08-30T17:55:29;15.50;99.90
41694;DHT22;27377;50.666;9.150;2023-08-30T18:02:19;15.30;99.90
41694;DHT22;27377;50.666;9.150;2023-08-30T18:05:17;15.20;99.90
41694;DHT22;27377;50.666;9.150;2023-08-30T18:08:29;15.20;99.90
41694;DHT22;27377;50.666;9.150;2023-08-30T18:15:09;15.00;99.90
41694;DHT22;27377;50.666;9.150;2023-08-30T18:21:24;14.90;99.90
41694;DHT22;27377;50.666;9.150;2023-08-30T18:24:42;14.90;99.90
41694;DHT22;27377;50.666;9.150;2023-08-30T18:31:46;14.80;99.90
41694;DHT22;27377;50.666;9.150;2023-08-30T18:34:57;14.80;99.90
41694;DHT22;27377;50.666;9.150;2023-08-30T18:38:23;14.70;99.90
41694;DHT22;27377;50.666;9.150;2023-08-30T18:41:57;14.70;99.90
41694;DHT22;27377;50.666;9.150;2023-08-30T18:44:56;14.60;99.90
41694;DHT22;27377;50.666;9.150;2023-08-30T18:48:05;14.60;99.90
41694;DHT22;27377;50.666;9.150;2023-08-30T18:56:04;14.60;99.90
41694;DHT22;27377;50.666;9.150;2023-08-30T18:59:44;14.60;99.90
41694;DHT22;27377;50.666;9.150;2023-08-30T19:06:49;14.50;99.90
41694;DHT22;27377;50.666;9.150;2023-08-30T19:14:17;14.50;99.90
41694;DHT22;27377;50.666;9.150;2023-08-30T19:16:54;14.50;99.90
41694;DHT22;27377;50.666;9.150;2023-08-30T19:19:30;14.50;99.90
41694;DHT22;27377;50.666;9.150;2023-08-30T19:22:04;14.50;99.90
41694;DHT22;27377;50.666;9.150;2023-08-30T19:24:36;14.40;99.90
41694;DHT22;27377;50.666;9.150;2023-08-30T19:27:23;14.40;99.90
41694;DHT22;27377;50.666;9.150;2023-08-30T19:30:13;14.40;99.90